createdAt,value
2024-02-10T00:00:17.891Z,11.10
2024-02-10T00:02:45.996Z,11.10
2024-02-10T00:05:16.369Z,11.00
2024-02-10T00:07:47.220Z,11.00
2024-02-10T00:10:15.202Z,11.00
2024-02-10T00:12:43.058Z,11.00
2024-02-10T00:15:11.905Z,11.00
2024-02-10T00:17:41.979Z,10.90
2024-02-10T00:20:14.574Z,10.90
2024-02-10T00:22:42.556Z,10.90
2024-02-10T00:25:11.081Z,10.90
2024-02-10T00:27:39.312Z,10.90
2024-02-10T00:30:09.585Z,10.90
2024-02-10T00:32:38.967Z,10.90
2024-02-10T00:35:09.001Z,10.90
2024-02-10T00:37:36.927Z,10.90
2024-02-10T00:40:05.321Z,10.80
2024-02-10T00:42:33.256Z,10.80
2024-02-10T00:45:01.628Z,10.80
2024-02-10T00:47:30.094Z,10.80
2024-02-10T00:50:01.462Z,10.80
2024-02-10T00:52:31.366Z,10.80
2024-02-10T00:54:59.246Z,10.80
2024-02-10T00:57:29.997Z,10.80
2024-02-10T00:59:58.027Z,10.70
2024-02-10T01:02:25.836Z,10.70
2024-02-10T01:04:55.461Z,10.70
2024-02-10T01:07:26.166Z,10.70
2024-02-10T01:09:55.415Z,10.70
2024-02-10T01:12:23.170Z,10.70
2024-02-10T01:14:52.072Z,10.70
2024-02-10T01:17:19.907Z,10.70
2024-02-10T01:19:51.124Z,10.60
2024-02-10T01:22:24.465Z,10.60
2024-02-10T01:24:55.301Z,10.60
2024-02-10T01:27:27.752Z,10.60
2024-02-10T01:29:56.823Z,10.60
2024-02-10T01:32:24.965Z,10.50
2024-02-10T01:34:55.258Z,10.50
2024-02-10T01:37:23.841Z,10.50
2024-02-10T01:39:54.945Z,10.40
2024-02-10T01:42:28.560Z,10.40
2024-02-10T01:44:59.215Z,10.40
2024-02-10T01:47:27.140Z,10.40
2024-02-10T01:49:55.204Z,10.40
2024-02-10T01:52:23.263Z,10.30
2024-02-10T01:54:51.310Z,10.30
2024-02-10T01:57:19.787Z,10.30
2024-02-10T01:59:49.816Z,10.30
2024-02-10T02:02:17.638Z,10.30
2024-02-10T02:04:46.034Z,10.20
2024-02-10T02:07:15.104Z,10.20
2024-02-10T02:09:44.408Z,10.20
2024-02-10T02:12:12.657Z,10.20
2024-02-10T02:14:42.871Z,10.20
2024-02-10T02:17:12.038Z,10.10
2024-02-10T02:19:42.142Z,10.10
2024-02-10T02:22:10.796Z,10.00
2024-02-10T02:24:40.332Z,10.00
2024-02-10T02:27:10.683Z,10.00
2024-02-10T02:29:38.521Z,10.00
2024-02-10T02:32:07.964Z,10.00
2024-02-10T02:34:35.940Z,9.90
2024-02-10T02:37:04.768Z,9.90
2024-02-10T02:39:34.689Z,9.90
2024-02-10T02:42:06.697Z,9.80
2024-02-10T02:44:35.004Z,9.80
2024-02-10T02:47:06.666Z,9.70
2024-02-10T02:49:35.440Z,9.70
2024-02-10T02:52:05.844Z,9.70
2024-02-10T02:54:35.071Z,9.70
2024-02-10T02:57:06.045Z,9.70
2024-02-10T02:59:33.820Z,9.70
2024-02-10T03:02:03.685Z,9.70
2024-02-10T03:04:31.757Z,9.70
2024-02-10T03:07:00.491Z,9.70
2024-02-10T03:09:28.728Z,9.70
2024-02-10T03:11:56.484Z,9.70
2024-02-10T03:14:25.591Z,9.70
2024-02-10T03:16:53.630Z,9.60
2024-02-10T03:19:22.374Z,9.60
2024-02-10T03:21:50.241Z,9.60
2024-02-10T03:24:18.266Z,9.60
2024-02-10T03:26:46.104Z,9.60
2024-02-10T03:29:14.286Z,9.60
2024-02-10T03:31:45.087Z,9.60
2024-02-10T03:34:13.122Z,9.60
2024-02-10T03:36:41.195Z,9.60
2024-02-10T03:39:10.542Z,9.60
2024-02-10T03:41:38.411Z,9.60
2024-02-10T03:44:06.237Z,9.60
2024-02-10T03:46:34.196Z,9.60
2024-02-10T03:49:03.477Z,9.60
2024-02-10T03:51:32.250Z,9.70
2024-02-10T03:54:00.134Z,9.70
2024-02-10T03:56:28.807Z,9.60
2024-02-10T03:58:57.405Z,9.60
2024-02-10T04:01:25.454Z,9.60
2024-02-10T04:03:56.907Z,9.60
2024-02-10T04:06:26.153Z,9.60
2024-02-10T04:08:54.508Z,9.60
2024-02-10T04:11:22.494Z,9.50
2024-02-10T04:13:52.160Z,9.50
2024-02-10T04:16:20.051Z,9.40
2024-02-10T04:18:47.948Z,9.40
2024-02-10T04:21:16.228Z,9.40
2024-02-10T04:23:45.305Z,9.30
2024-02-10T04:26:13.293Z,9.30
2024-02-10T04:28:41.138Z,9.20
2024-02-10T04:31:12.096Z,9.20
2024-02-10T04:33:40.146Z,9.20
2024-02-10T04:36:08.954Z,9.20
2024-02-10T04:38:37.610Z,9.20
2024-02-10T04:41:07.057Z,9.20
2024-02-10T04:43:37.570Z,9.20
2024-02-10T04:46:05.777Z,9.20
2024-02-10T04:48:33.559Z,9.20
2024-02-10T04:51:01.417Z,9.30
2024-02-10T04:53:29.244Z,9.30
2024-02-10T04:55:57.175Z,9.30
2024-02-10T04:58:26.614Z,9.20
2024-02-10T05:00:54.502Z,9.20
2024-02-10T05:03:22.348Z,9.20
2024-02-10T05:05:51.588Z,9.20
2024-02-10T05:08:19.576Z,9.20
2024-02-10T05:10:47.504Z,9.10
2024-02-10T05:13:17.016Z,9.10
2024-02-10T05:15:46.374Z,9.10
2024-02-10T05:18:14.370Z,9.10
2024-02-10T05:20:44.813Z,9.10
2024-02-10T05:23:13.025Z,9.00
2024-02-10T05:25:41.022Z,9.00
2024-02-10T05:28:09.069Z,9.00
2024-02-10T05:30:36.909Z,8.90
2024-02-10T05:33:06.978Z,8.90
2024-02-10T05:35:35.146Z,8.90
2024-02-10T05:38:05.282Z,8.90
2024-02-10T05:40:33.578Z,8.90
2024-02-10T05:43:05.577Z,8.90
2024-02-10T05:45:34.534Z,8.90
2024-02-10T05:48:02.840Z,8.90
2024-02-10T05:50:33.787Z,8.80
2024-02-10T05:53:01.872Z,8.80
2024-02-10T05:55:31.395Z,8.70
2024-02-10T05:58:03.303Z,8.60
2024-02-10T06:00:32.267Z,8.50
2024-02-10T06:03:00.745Z,8.50
2024-02-10T06:05:29.929Z,8.50
2024-02-10T06:08:02.111Z,8.50
2024-02-10T06:10:30.276Z,8.50
2024-02-10T06:13:00.021Z,8.50
2024-02-10T06:15:28.108Z,8.50
2024-02-10T06:17:57.553Z,8.40
2024-02-10T06:20:26.573Z,8.40
2024-02-10T06:22:56.827Z,8.50
2024-02-10T06:25:27.907Z,8.40
2024-02-10T06:27:57.654Z,8.50
2024-02-10T06:30:28.753Z,8.50
2024-02-10T06:32:57.557Z,8.50
2024-02-10T06:35:26.127Z,8.60
2024-02-10T06:37:56.166Z,8.60
2024-02-10T06:40:26.030Z,8.60
2024-02-10T06:42:54.853Z,8.60
2024-02-10T06:45:25.955Z,8.60
2024-02-10T06:47:54.543Z,8.60
2024-02-10T06:50:29.146Z,8.60
2024-02-10T06:53:01.179Z,8.60
2024-02-10T06:55:31.447Z,8.60
2024-02-10T06:57:59.585Z,8.60
2024-02-10T07:00:28.802Z,8.60
2024-02-10T07:02:58.104Z,8.60
2024-02-10T07:05:27.014Z,8.60
2024-02-10T07:07:56.897Z,8.70
2024-02-10T07:10:25.721Z,8.70
2024-02-10T07:12:58.398Z,8.70
2024-02-10T07:15:31.084Z,8.70
2024-02-10T07:18:03.599Z,8.70
2024-02-10T07:20:33.403Z,8.70
2024-02-10T07:23:05.266Z,8.80
2024-02-10T07:25:34.779Z,8.80
2024-02-10T07:28:04.538Z,8.80
2024-02-10T07:30:33.547Z,8.90
2024-02-10T07:33:04.966Z,9.00
2024-02-10T07:35:33.548Z,9.00
2024-02-10T07:38:02.851Z,9.00
2024-02-10T07:40:31.302Z,9.00
2024-02-10T07:43:03.992Z,9.00
2024-02-10T07:45:37.826Z,9.00
2024-02-10T07:48:07.734Z,9.00
2024-02-10T07:50:37.465Z,9.10
2024-02-10T07:53:08.722Z,9.20
2024-02-10T07:55:38.151Z,9.20
2024-02-10T07:58:10.651Z,9.30
2024-02-10T08:00:41.658Z,9.30
2024-02-10T08:03:09.635Z,9.30
2024-02-10T08:05:38.908Z,9.40
2024-02-10T08:08:10.259Z,9.40
2024-02-10T08:10:38.642Z,9.50
2024-02-10T08:13:07.023Z,9.60
2024-02-10T08:15:35.220Z,9.70
2024-02-10T08:18:10.594Z,9.70
2024-02-10T08:20:41.173Z,9.90
2024-02-10T08:23:13.117Z,10.00
2024-02-10T08:25:41.007Z,10.00
2024-02-10T08:28:08.892Z,10.10
2024-02-10T08:30:36.877Z,10.20
2024-02-10T08:33:06.759Z,10.20
2024-02-10T08:35:37.575Z,10.20
2024-02-10T08:38:05.999Z,10.20
2024-02-10T08:40:34.000Z,10.30
2024-02-10T08:43:01.886Z,10.40
2024-02-10T08:45:29.742Z,10.40
2024-02-10T08:47:57.647Z,10.40
2024-02-10T08:50:27.718Z,10.50
2024-02-10T08:52:57.934Z,10.60
2024-02-10T08:55:28.350Z,10.70
2024-02-10T08:57:59.941Z,10.80
2024-02-10T09:00:27.903Z,10.80
2024-02-10T09:02:56.855Z,11.00
2024-02-10T09:05:27.968Z,11.10
2024-02-10T09:07:56.072Z,11.20
2024-02-10T09:10:24.322Z,11.30
2024-02-10T09:12:52.182Z,11.50
2024-02-10T09:15:21.862Z,11.50
2024-02-10T09:17:51.979Z,11.60
2024-02-10T09:20:22.241Z,11.70
2024-02-10T09:22:52.867Z,11.70
2024-02-10T09:25:20.774Z,11.70
2024-02-10T09:27:48.620Z,11.80
2024-02-10T09:30:16.832Z,11.80
2024-02-10T09:32:46.549Z,11.80
2024-02-10T09:35:18.174Z,11.80
2024-02-10T09:37:48.749Z,11.90
2024-02-10T09:40:20.005Z,11.90
2024-02-10T09:42:54.966Z,12.00
2024-02-10T09:45:25.042Z,12.00
2024-02-10T09:47:54.001Z,11.90
2024-02-10T09:50:31.028Z,11.90
2024-02-10T09:53:05.793Z,11.90
2024-02-10T09:55:35.052Z,12.00
2024-02-10T09:58:05.298Z,12.10
2024-02-10T10:00:38.084Z,12.20
2024-02-10T10:03:07.070Z,12.30
2024-02-10T10:05:44.527Z,12.40
2024-02-10T10:08:12.998Z,12.50
2024-02-10T10:10:42.495Z,12.50
2024-02-10T10:13:10.909Z,12.50
2024-02-10T10:15:39.913Z,12.60
2024-02-10T10:18:15.458Z,12.70
2024-02-10T10:20:47.082Z,12.80
2024-02-10T10:23:16.299Z,12.90
2024-02-10T10:25:47.672Z,13.00
2024-02-10T10:28:17.297Z,13.00
2024-02-10T10:30:47.096Z,13.10
2024-02-10T10:33:19.383Z,13.10
2024-02-10T10:35:47.697Z,13.10
2024-02-10T10:38:17.508Z,13.10
2024-02-10T10:40:52.728Z,13.20
2024-02-10T10:43:21.928Z,13.20
2024-02-10T10:45:49.843Z,13.30
2024-02-10T10:48:17.832Z,13.40
2024-02-10T10:50:45.853Z,13.40
2024-02-10T10:53:13.672Z,13.40
2024-02-10T10:55:49.684Z,13.40
2024-02-10T10:58:21.486Z,13.40
2024-02-10T11:00:52.130Z,13.40
2024-02-10T11:03:20.496Z,13.40
2024-02-10T11:05:50.297Z,13.50
2024-02-10T11:08:27.100Z,13.40
2024-02-10T11:11:01.708Z,13.50
2024-02-10T11:13:31.134Z,13.50
2024-02-10T11:16:06.229Z,13.40
2024-02-10T11:18:36.016Z,13.50
2024-02-10T11:21:11.209Z,13.50
2024-02-10T11:23:39.743Z,13.50
2024-02-10T11:26:12.028Z,13.60
2024-02-10T11:28:40.134Z,13.60
2024-02-10T11:31:11.120Z,13.70
2024-02-10T11:33:41.291Z,13.80
2024-02-10T11:36:12.167Z,13.80
2024-02-10T11:38:40.367Z,13.90
2024-02-10T11:41:09.616Z,14.00
2024-02-10T11:43:37.588Z,14.10
2024-02-10T11:46:05.695Z,14.20
2024-02-10T11:48:33.595Z,14.30
2024-02-10T11:51:04.881Z,14.30
2024-02-10T11:53:33.720Z,14.50
2024-02-10T11:56:07.823Z,14.50
2024-02-10T11:58:40.578Z,14.60
2024-02-10T12:01:09.070Z,14.60
2024-02-10T12:03:36.905Z,14.70
2024-02-10T12:06:06.194Z,14.70
2024-02-10T12:08:34.737Z,14.80
2024-02-10T12:11:02.714Z,14.90
2024-02-10T12:13:30.648Z,14.90
2024-02-10T12:16:05.990Z,15.00
2024-02-10T12:18:34.585Z,15.00
2024-02-10T12:21:05.457Z,15.00
2024-02-10T12:23:33.771Z,15.10
2024-02-10T12:26:03.042Z,15.10
2024-02-10T12:28:34.789Z,15.20
2024-02-10T12:31:04.038Z,15.20
2024-02-10T12:33:31.853Z,15.20
2024-02-10T12:36:01.107Z,15.30
2024-02-10T12:38:29.480Z,15.30
2024-02-10T12:40:57.865Z,15.40
2024-02-10T12:43:27.483Z,15.50
2024-02-10T12:45:55.628Z,15.60
2024-02-10T12:48:24.887Z,15.60
2024-02-10T12:50:54.971Z,15.70
2024-02-10T12:53:25.836Z,15.80
2024-02-10T12:55:53.785Z,15.90
2024-02-10T12:58:21.875Z,16.00
2024-02-10T13:00:49.001Z,16.00
2024-02-10T13:03:20.996Z,16.00
2024-02-10T13:05:50.987Z,16.00
2024-02-10T13:08:19.830Z,16.00
2024-02-10T13:10:48.197Z,16.00
2024-02-10T13:13:16.174Z,16.00
2024-02-10T13:15:45.115Z,15.90
2024-02-10T13:18:15.078Z,15.90
2024-02-10T13:20:43.186Z,15.90
2024-02-10T13:23:12.419Z,15.90
2024-02-10T13:25:40.338Z,15.90
2024-02-10T13:28:13.763Z,15.90
2024-02-10T13:30:45.149Z,15.90
2024-02-10T13:33:14.247Z,15.90
2024-02-10T13:35:42.631Z,16.00
2024-02-10T13:38:29.206Z,15.90
2024-02-10T13:41:14.959Z,16.00
2024-02-10T13:44:00.808Z,16.00
2024-02-10T13:46:46.156Z,15.90
2024-02-10T13:49:31.736Z,16.00
2024-02-10T13:52:17.181Z,15.90
2024-02-10T13:55:04.190Z,15.90
2024-02-10T13:57:49.519Z,15.80
2024-02-10T14:00:29.557Z,15.70
2024-02-10T14:03:01.883Z,15.70
2024-02-10T14:05:49.544Z,15.60
2024-02-10T14:08:36.891Z,15.50
2024-02-10T14:11:13.878Z,15.40
2024-02-10T14:13:47.324Z,15.40
2024-02-10T14:16:17.210Z,15.40
2024-02-10T14:18:48.050Z,15.30
2024-02-10T14:21:25.249Z,15.30
2024-02-10T14:23:54.880Z,15.30
2024-02-10T14:26:38.556Z,15.30
2024-02-10T14:29:08.136Z,15.30
2024-02-10T14:31:45.966Z,15.20
2024-02-10T14:34:17.192Z,15.20
2024-02-10T14:36:52.825Z,15.20
2024-02-10T14:39:21.721Z,15.10
2024-02-10T14:41:52.774Z,15.10
2024-02-10T14:44:23.980Z,15.10
2024-02-10T14:46:54.043Z,15.00
2024-02-10T14:49:23.751Z,15.00
2024-02-10T14:51:52.865Z,14.90
2024-02-10T14:54:22.758Z,14.90
2024-02-10T14:56:52.304Z,14.80
2024-02-10T14:59:21.201Z,14.80
2024-02-10T15:01:48.707Z,14.70
2024-02-10T15:04:19.605Z,14.60
2024-02-10T15:06:49.017Z,14.60
2024-02-10T15:09:19.271Z,14.60
2024-02-10T15:11:49.795Z,14.50
2024-02-10T15:14:20.769Z,14.50
2024-02-10T15:16:54.885Z,14.50
2024-02-10T15:19:25.189Z,14.40
2024-02-10T15:21:58.134Z,14.30
2024-02-10T15:24:29.251Z,14.20
2024-02-10T15:26:57.302Z,14.10
2024-02-10T15:29:26.410Z,14.00
2024-02-10T15:31:58.678Z,13.90
2024-02-10T15:34:27.867Z,13.80
2024-02-10T15:36:57.522Z,13.70
2024-02-10T15:39:25.322Z,13.60
2024-02-10T15:41:54.902Z,13.50
2024-02-10T15:44:22.747Z,13.40
2024-02-10T15:46:51.976Z,13.30
2024-02-10T15:49:21.289Z,13.20
2024-02-10T15:51:50.372Z,13.10
2024-02-10T15:54:18.250Z,13.00
2024-02-10T15:56:46.160Z,12.90
2024-02-10T15:59:14.988Z,12.80
2024-02-10T16:01:45.847Z,12.70
2024-02-10T16:04:15.604Z,12.60
2024-02-10T16:06:48.060Z,12.60
2024-02-10T16:09:17.392Z,12.50
2024-02-10T16:11:46.956Z,12.40
2024-02-10T16:14:15.542Z,12.40
2024-02-10T16:16:45.454Z,12.30
2024-02-10T16:19:17.140Z,12.20
2024-02-10T16:21:47.000Z,12.10
2024-02-10T16:24:15.650Z,11.90
2024-02-10T16:26:46.073Z,11.90
2024-02-10T16:29:15.612Z,11.70
2024-02-10T16:31:51.842Z,11.70
2024-02-10T16:34:23.186Z,11.60
2024-02-10T16:36:55.118Z,11.50
2024-02-10T16:39:24.401Z,11.40
2024-02-10T16:41:54.148Z,11.40
2024-02-10T16:44:23.335Z,11.30
2024-02-10T16:46:52.099Z,11.20
2024-02-10T16:49:24.072Z,11.20
2024-02-10T16:51:57.763Z,11.10
2024-02-10T16:54:26.919Z,11.00
2024-02-10T16:56:57.170Z,11.00
2024-02-10T16:59:30.318Z,10.90
2024-02-10T17:02:00.188Z,10.90
2024-02-10T17:04:30.673Z,10.80
2024-02-10T17:06:59.169Z,10.70
2024-02-10T17:09:28.261Z,10.70
2024-02-10T17:11:56.965Z,10.60
2024-02-10T17:14:25.815Z,10.60
2024-02-10T17:16:55.970Z,10.60
2024-02-10T17:19:25.018Z,10.60
2024-02-10T17:21:56.113Z,10.50
2024-02-10T17:24:25.243Z,10.50
2024-02-10T17:26:55.794Z,10.50
2024-02-10T17:29:26.050Z,10.50
2024-02-10T17:31:54.707Z,10.50
2024-02-10T17:34:23.725Z,10.40
2024-02-10T17:36:51.837Z,10.40
2024-02-10T17:39:23.508Z,10.40
2024-02-10T17:41:51.357Z,10.40
2024-02-10T17:44:20.708Z,10.40
2024-02-10T17:46:50.398Z,10.30
2024-02-10T17:49:21.077Z,10.30
2024-02-10T17:51:49.510Z,10.30
2024-02-10T17:54:20.325Z,10.30
2024-02-10T17:56:50.226Z,10.30
2024-02-10T17:59:19.903Z,10.30
2024-02-10T18:01:47.934Z,10.20
2024-02-10T18:04:16.039Z,10.20
2024-02-10T18:06:44.829Z,10.20
2024-02-10T18:09:13.006Z,10.20
2024-02-10T18:11:42.665Z,10.20
2024-02-10T18:14:14.317Z,10.20
2024-02-10T18:16:42.287Z,10.20
2024-02-10T18:19:11.304Z,10.20
2024-02-10T18:21:39.807Z,10.10
2024-02-10T18:24:10.115Z,10.10
2024-02-10T18:26:40.675Z,10.10
2024-02-10T18:29:08.627Z,10.10
2024-02-10T18:31:37.811Z,10.10
2024-02-10T18:34:06.031Z,10.10
2024-02-10T18:36:33.923Z,10.00
2024-02-10T18:39:01.722Z,10.10
2024-02-10T18:41:29.561Z,10.00
2024-02-10T18:43:59.153Z,10.00
2024-02-10T18:46:28.311Z,10.00
2024-02-10T18:48:57.613Z,10.00
2024-02-10T18:51:28.540Z,10.00
2024-02-10T18:53:57.981Z,10.00
2024-02-10T18:56:25.924Z,10.00
2024-02-10T18:58:54.096Z,10.00
2024-02-10T19:01:23.766Z,9.90
2024-02-10T19:03:51.891Z,9.90
2024-02-10T19:06:23.438Z,9.90
2024-02-10T19:08:51.552Z,9.90
2024-02-10T19:11:20.002Z,9.90
2024-02-10T19:13:48.179Z,9.90
2024-02-10T19:16:16.421Z,9.90
2024-02-10T19:18:44.848Z,9.90
2024-02-10T19:21:13.258Z,9.80
2024-02-10T19:23:43.833Z,9.80
2024-02-10T19:26:11.995Z,9.80
2024-02-10T19:28:39.966Z,9.80
2024-02-10T19:31:12.750Z,9.80
2024-02-10T19:33:41.164Z,9.80
2024-02-10T19:36:10.012Z,9.80
2024-02-10T19:38:40.658Z,9.80
2024-02-10T19:41:13.585Z,9.70
2024-02-10T19:43:43.578Z,9.70
2024-02-10T19:46:15.978Z,9.70
2024-02-10T19:48:48.123Z,9.70
2024-02-10T19:51:18.287Z,9.70
2024-02-10T19:53:48.075Z,9.70
2024-02-10T19:56:18.463Z,9.70
2024-02-10T19:58:51.772Z,9.70
2024-02-10T20:01:22.585Z,9.70
2024-02-10T20:03:53.019Z,9.70
2024-02-10T20:06:22.970Z,9.70
2024-02-10T20:08:53.435Z,9.60
2024-02-10T20:11:24.070Z,9.60
2024-02-10T20:13:52.896Z,9.60
2024-02-10T20:16:21.063Z,9.60
2024-02-10T20:18:49.044Z,9.60
2024-02-10T20:21:17.569Z,9.60
2024-02-10T20:23:45.980Z,9.60
2024-02-10T20:26:14.351Z,9.50
2024-02-10T20:28:44.984Z,9.50
2024-02-10T20:31:17.730Z,9.50
2024-02-10T20:33:49.763Z,9.50
2024-02-10T20:36:19.436Z,9.50
2024-02-10T20:38:47.254Z,9.50
2024-02-10T20:41:15.371Z,9.50
2024-02-10T20:43:44.769Z,9.40
2024-02-10T20:46:12.833Z,9.40
2024-02-10T20:48:40.796Z,9.40
2024-02-10T20:51:08.664Z,9.40
2024-02-10T20:53:39.311Z,9.30
2024-02-10T20:56:09.794Z,9.30
2024-02-10T20:58:40.506Z,9.30
2024-02-10T21:01:10.292Z,9.30
2024-02-10T21:03:38.505Z,9.20
2024-02-10T21:06:08.041Z,9.20
2024-02-10T21:08:38.828Z,9.20
2024-02-10T21:11:07.235Z,9.20
2024-02-10T21:13:35.157Z,9.10
2024-02-10T21:16:03.041Z,9.10
2024-02-10T21:18:32.302Z,9.10
2024-02-10T21:21:01.427Z,9.10
2024-02-10T21:23:31.734Z,9.10
2024-02-10T21:25:59.603Z,9.10
2024-02-10T21:28:27.784Z,9.10
2024-02-10T21:30:55.689Z,9.00
2024-02-10T21:33:24.103Z,9.00
2024-02-10T21:35:54.008Z,9.00
2024-02-10T21:38:21.801Z,9.00
2024-02-10T21:40:49.778Z,9.00
2024-02-10T21:43:17.621Z,9.00
2024-02-10T21:45:45.782Z,8.90
2024-02-10T21:48:13.668Z,8.90
2024-02-10T21:50:42.501Z,8.90
2024-02-10T21:53:12.074Z,8.90
2024-02-10T21:55:43.371Z,8.90
2024-02-10T21:58:12.777Z,8.90
2024-02-10T22:00:40.946Z,8.90
2024-02-10T22:03:09.829Z,8.90
2024-02-10T22:05:37.709Z,8.90
2024-02-10T22:08:06.672Z,8.90
2024-02-10T22:10:37.131Z,8.90
2024-02-10T22:13:06.652Z,8.90
2024-02-10T22:15:34.583Z,8.90
2024-02-10T22:18:02.535Z,8.80
2024-02-10T22:20:30.383Z,8.90
2024-02-10T22:22:58.197Z,8.90
2024-02-10T22:25:25.981Z,8.80
2024-02-10T22:27:55.736Z,8.80
2024-02-10T22:30:27.389Z,8.80
2024-02-10T22:32:55.455Z,8.80
2024-02-10T22:35:23.368Z,8.80
2024-02-10T22:37:57.473Z,8.70
2024-02-10T22:40:27.674Z,8.80
2024-02-10T22:43:00.203Z,8.70
2024-02-10T22:45:28.108Z,8.70
2024-02-10T22:47:56.109Z,8.70
2024-02-10T22:50:24.086Z,8.70
2024-02-10T22:52:52.686Z,8.70
2024-02-10T22:55:20.852Z,8.60
2024-02-10T22:57:47.739Z,8.60
2024-02-10T23:00:23.459Z,8.60
2024-02-10T23:02:51.360Z,8.60
2024-02-10T23:05:21.136Z,8.60
2024-02-10T23:07:51.143Z,8.60
2024-02-10T23:10:19.046Z,8.60
2024-02-10T23:12:50.959Z,8.60
2024-02-10T23:15:23.198Z,8.60
2024-02-10T23:17:51.818Z,8.60
2024-02-10T23:20:19.795Z,8.60
2024-02-10T23:22:47.680Z,8.60
2024-02-10T23:25:16.296Z,8.60
2024-02-10T23:27:44.098Z,8.60
2024-02-10T23:30:12.414Z,8.60
2024-02-10T23:32:41.629Z,8.60
2024-02-10T23:35:11.040Z,8.60
2024-02-10T23:37:41.279Z,8.60
2024-02-10T23:40:14.611Z,8.60
2024-02-10T23:42:44.072Z,8.70
2024-02-10T23:45:12.037Z,8.70
2024-02-10T23:47:45.744Z,8.60
2024-02-10T23:50:15.302Z,8.60
2024-02-10T23:52:43.315Z,8.60
2024-02-10T23:55:14.168Z,8.60
2024-02-10T23:57:42.072Z,8.60
